createdAt,value
2018-09-10T00:01:31.801Z,2.23
2018-09-10T00:04:34.834Z,2.90
2018-09-10T00:07:37.841Z,2.70
2018-09-10T00:10:40.829Z,2.97
2018-09-10T00:13:43.870Z,2.60
2018-09-10T00:16:46.873Z,2.60
2018-09-10T00:19:49.861Z,2.67
2018-09-10T00:22:52.818Z,2.57
2018-09-10T00:25:55.813Z,2.60
2018-09-10T00:28:58.789Z,2.50
2018-09-10T00:32:01.773Z,2.70
2018-09-10T00:35:04.977Z,2.43
2018-09-10T00:38:07.961Z,3.10
2018-09-10T00:41:10.933Z,2.33
2018-09-10T00:44:13.898Z,2.70
2018-09-10T00:47:16.942Z,3.10
2018-09-10T00:50:19.923Z,3.03
2018-09-10T00:53:22.897Z,3.00
2018-09-10T00:56:25.876Z,2.87
2018-09-10T00:59:28.857Z,3.27
2018-09-10T01:02:31.842Z,3.20
2018-09-10T01:05:34.834Z,2.80
2018-09-10T01:08:37.798Z,2.60
2018-09-10T01:11:40.785Z,2.83
2018-09-10T01:14:43.757Z,2.67
2018-09-10T01:17:46.771Z,2.60
2018-09-10T01:20:49.782Z,2.77
2018-09-10T01:23:52.746Z,2.40
2018-09-10T01:26:55.730Z,2.80
2018-09-10T01:29:58.697Z,3.10
2018-09-10T01:33:01.698Z,2.83
2018-09-10T01:36:04.755Z,2.37
2018-09-10T01:39:08.678Z,2.50
2018-09-10T01:42:11.696Z,3.03
2018-09-10T01:45:14.665Z,2.50
2018-09-10T01:48:17.650Z,2.90
2018-09-10T01:51:20.733Z,2.93
2018-09-10T01:54:23.717Z,2.60
2018-09-10T01:57:26.726Z,3.07
2018-09-10T02:00:29.770Z,2.90
2018-09-10T02:03:32.761Z,3.70
2018-09-10T02:06:35.756Z,3.20
2018-09-10T02:09:38.745Z,3.60
2018-09-10T02:12:41.729Z,3.00
2018-09-10T02:15:48.705Z,3.30
2018-09-10T02:18:51.700Z,3.30
2018-09-10T02:21:54.698Z,3.37
2018-09-10T02:24:57.676Z,3.57
2018-09-10T02:28:00.662Z,3.17
2018-09-10T02:31:04.113Z,3.70
2018-09-10T02:34:07.114Z,3.80
2018-09-10T02:37:10.141Z,3.10
2018-09-10T02:40:13.129Z,3.80
2018-09-10T02:43:16.143Z,3.60
2018-09-10T02:46:19.142Z,3.30
2018-09-10T02:49:22.142Z,3.50
2018-09-10T02:52:25.167Z,3.43
2018-09-10T02:55:28.177Z,3.47
2018-09-10T02:58:31.170Z,3.70
2018-09-10T03:01:34.192Z,3.10
2018-09-10T03:04:37.242Z,3.40
2018-09-10T03:07:40.240Z,3.17
2018-09-10T03:10:43.233Z,3.30
2018-09-10T03:13:46.280Z,2.77
2018-09-10T03:16:49.245Z,3.10
2018-09-10T03:19:52.595Z,3.37
2018-09-10T03:22:55.642Z,3.10
2018-09-10T03:25:58.622Z,3.30
2018-09-10T03:29:01.631Z,4.40
2018-09-10T03:32:04.669Z,3.43
2018-09-10T03:35:07.754Z,3.70
2018-09-10T03:38:10.765Z,3.07
2018-09-10T03:41:13.762Z,3.10
2018-09-10T03:44:16.770Z,3.47
2018-09-10T03:47:19.770Z,3.50
2018-09-10T03:50:22.775Z,3.50
2018-09-10T03:53:25.746Z,4.10
2018-09-10T03:56:28.795Z,3.77
2018-09-10T03:59:31.793Z,3.73
2018-09-10T04:02:34.762Z,3.87
2018-09-10T04:05:37.758Z,3.90
2018-09-10T04:08:40.725Z,4.07
2018-09-10T04:11:43.721Z,4.10
2018-09-10T04:14:46.774Z,4.13
2018-09-10T04:17:49.753Z,5.30
2018-09-10T04:20:52.936Z,3.77
2018-09-10T04:23:55.918Z,3.67
2018-09-10T04:26:58.921Z,3.83
2018-09-10T04:30:01.954Z,3.67
2018-09-10T04:33:04.938Z,4.47
2018-09-10T04:36:07.937Z,4.23
2018-09-10T04:39:11.737Z,4.00
2018-09-10T04:42:14.763Z,3.97
2018-09-10T04:45:17.750Z,4.40
2018-09-10T04:48:20.771Z,4.00
2018-09-10T04:51:23.758Z,4.80
2018-09-10T04:54:26.740Z,4.17
2018-09-10T04:57:29.758Z,4.57
2018-09-10T05:00:32.750Z,4.27
2018-09-10T05:03:35.773Z,4.13
2018-09-10T05:06:38.764Z,3.87
2018-09-10T05:09:41.753Z,4.03
2018-09-10T05:12:44.757Z,4.30
2018-09-10T05:15:47.818Z,4.57
2018-09-10T05:18:50.790Z,4.10
2018-09-10T05:21:53.805Z,4.37
2018-09-10T05:24:56.781Z,3.97
2018-09-10T05:27:59.814Z,4.00
2018-09-10T05:31:03.114Z,4.27
2018-09-10T05:34:06.125Z,5.00
2018-09-10T05:37:09.149Z,3.67
2018-09-10T05:40:12.166Z,4.70
2018-09-10T05:43:15.190Z,4.60
2018-09-10T05:46:18.162Z,4.43
2018-09-10T05:49:21.166Z,4.73
2018-09-10T05:52:24.188Z,5.47
2018-09-10T05:55:27.212Z,5.43
2018-09-10T05:58:30.182Z,4.97
2018-09-10T06:01:33.170Z,5.20
2018-09-10T06:04:36.265Z,4.90
2018-09-10T06:07:41.742Z,5.10
2018-09-10T06:10:44.729Z,5.07
2018-09-10T06:13:47.721Z,4.90
2018-09-10T06:16:50.770Z,4.50
2018-09-10T06:19:53.957Z,5.00
2018-09-10T06:22:56.950Z,5.03
2018-09-10T06:25:59.929Z,4.43
2018-09-10T06:29:02.921Z,4.90
2018-09-10T06:32:05.887Z,5.30
2018-09-10T06:35:08.877Z,4.77
2018-09-10T06:38:11.886Z,5.00
2018-09-10T06:41:14.893Z,7.62
2018-09-10T06:44:17.909Z,4.60
2018-09-10T06:47:20.901Z,5.72
2018-09-10T06:50:23.900Z,4.90
2018-09-10T06:53:26.893Z,5.03
2018-09-10T06:56:29.877Z,4.80
2018-09-10T06:59:32.857Z,4.92
2018-09-10T07:02:35.823Z,5.00
2018-09-10T07:05:38.827Z,4.72
2018-09-10T07:08:41.838Z,4.37
2018-09-10T07:11:44.803Z,7.20
2018-09-10T07:14:47.812Z,5.65
2018-09-10T07:17:50.820Z,4.72
2018-09-10T07:20:53.814Z,5.00
2018-09-10T07:23:56.798Z,4.87
2018-09-10T07:26:59.766Z,4.45
2018-09-10T07:30:02.776Z,4.67
2018-09-10T07:33:05.808Z,5.53
2018-09-10T07:36:08.806Z,4.53
2018-09-10T07:39:12.049Z,4.53
2018-09-10T07:42:15.034Z,4.30
2018-09-10T07:45:18.041Z,3.80
2018-09-10T07:48:21.017Z,4.10
2018-09-10T07:51:24.022Z,4.67
2018-09-10T07:54:27.034Z,4.80
2018-09-10T07:57:30.010Z,4.45
2018-09-10T08:00:33.046Z,3.50
2018-09-10T08:03:36.019Z,3.80
2018-09-10T08:06:39.022Z,3.50
2018-09-10T08:09:42.131Z,4.00
2018-09-10T08:12:45.079Z,3.58
2018-09-10T08:15:48.079Z,3.65
2018-09-10T08:18:51.058Z,4.10
2018-09-10T08:21:54.065Z,3.70
2018-09-10T08:24:57.057Z,3.35
2018-09-10T08:28:00.037Z,3.60
2018-09-10T08:31:03.050Z,3.22
2018-09-10T08:34:06.085Z,7.25
2018-09-10T08:37:09.099Z,3.10
2018-09-10T08:40:12.185Z,2.77
2018-09-10T08:43:15.138Z,2.65
2018-09-10T08:46:18.134Z,3.17
2018-09-10T08:49:21.134Z,3.22
2018-09-10T08:52:24.139Z,3.95
2018-09-10T08:55:27.242Z,3.58
2018-09-10T08:58:30.134Z,3.72
2018-09-10T09:01:33.149Z,3.42
2018-09-10T09:04:36.225Z,3.70
2018-09-10T09:07:39.221Z,3.40
2018-09-10T09:10:42.223Z,3.98
2018-09-10T09:13:45.193Z,3.58
2018-09-10T09:16:48.186Z,2.92
2018-09-10T09:19:51.182Z,3.83
2018-09-10T09:22:54.229Z,4.17
2018-09-10T09:25:57.225Z,3.17
2018-09-10T09:29:00.200Z,3.87
2018-09-10T09:32:03.202Z,4.62
2018-09-10T09:35:06.182Z,3.47
2018-09-10T09:38:14.892Z,3.58
2018-09-10T09:41:23.702Z,3.50
2018-09-10T09:44:32.404Z,3.22
2018-09-10T09:47:35.645Z,3.20
2018-09-10T09:50:38.617Z,3.83
2018-09-10T09:53:41.620Z,3.50
2018-09-10T09:56:44.663Z,2.95
2018-09-10T09:59:47.802Z,2.87
2018-09-10T10:03:01.224Z,3.27
2018-09-10T10:06:04.330Z,3.50
2018-09-10T10:09:09.551Z,3.37
2018-09-10T10:12:12.552Z,2.98
2018-09-10T10:15:15.561Z,3.22
2018-09-10T10:18:18.545Z,3.30
2018-09-10T10:21:21.515Z,3.30
2018-09-10T10:24:24.517Z,2.95
2018-09-10T10:27:27.498Z,2.95
2018-09-10T10:30:30.501Z,3.20
2018-09-10T10:33:33.493Z,2.70
2018-09-10T10:36:36.481Z,3.52
2018-09-10T10:39:39.477Z,2.75
2018-09-10T10:42:42.452Z,2.77
2018-09-10T10:45:45.431Z,2.72
2018-09-10T10:48:48.412Z,2.77
2018-09-10T10:51:51.786Z,2.55
2018-09-10T10:54:54.821Z,2.65
2018-09-10T10:57:57.810Z,2.60
2018-09-10T11:01:00.790Z,2.25
2018-09-10T11:04:03.839Z,2.45
2018-09-10T11:07:07.096Z,2.35
2018-09-10T11:10:10.086Z,9.93
2018-09-10T11:13:13.094Z,2.30
2018-09-10T11:16:16.065Z,2.42
2018-09-10T11:19:19.072Z,2.10
2018-09-10T11:22:22.076Z,2.17
2018-09-10T11:25:25.086Z,2.65
2018-09-10T11:28:28.102Z,2.10
2018-09-10T11:31:31.142Z,1.90
2018-09-10T11:34:34.124Z,1.90
2018-09-10T11:37:37.126Z,2.33
2018-09-10T11:40:40.118Z,2.47
2018-09-10T11:43:43.120Z,2.40
2018-09-10T11:46:46.094Z,1.98
2018-09-10T11:49:49.064Z,2.30
2018-09-10T11:52:52.034Z,2.25
2018-09-10T11:55:55.038Z,2.08
2018-09-10T11:58:58.027Z,1.67
2018-09-10T12:02:01.067Z,1.87
2018-09-10T12:05:04.103Z,1.50
2018-09-10T12:08:07.086Z,1.85
2018-09-10T12:11:10.087Z,1.95
2018-09-10T12:14:13.108Z,2.08
2018-09-10T12:17:16.081Z,2.10
2018-09-10T12:20:19.132Z,2.20
2018-09-10T12:23:22.094Z,2.20
2018-09-10T12:26:25.102Z,1.60
2018-09-10T12:29:28.122Z,1.80
2018-09-10T12:32:31.184Z,1.70
2018-09-10T12:35:34.321Z,1.55
2018-09-10T12:38:37.363Z,2.08
2018-09-10T12:41:40.917Z,1.65
2018-09-10T12:44:43.908Z,1.72
2018-09-10T12:47:46.892Z,1.82
2018-09-10T12:50:49.874Z,1.67
2018-09-10T12:53:52.841Z,1.70
2018-09-10T12:56:55.829Z,1.70
2018-09-10T12:59:58.814Z,1.75
2018-09-10T13:03:01.893Z,1.80
2018-09-10T13:06:04.981Z,1.67
2018-09-10T13:09:07.969Z,1.98
2018-09-10T13:12:10.973Z,1.67
2018-09-10T13:15:13.970Z,1.80
2018-09-10T13:18:16.949Z,1.80
2018-09-10T13:21:19.956Z,1.87
2018-09-10T13:24:22.926Z,2.00
2018-09-10T13:27:25.919Z,1.80
2018-09-10T13:30:28.909Z,2.10
2018-09-10T13:33:31.901Z,1.95
2018-09-10T13:36:34.932Z,2.15
2018-09-10T13:39:37.937Z,1.87
2018-09-10T13:42:40.933Z,2.00
2018-09-10T13:45:43.966Z,1.77
2018-09-10T13:48:46.939Z,1.85
2018-09-10T13:51:49.941Z,2.10
2018-09-10T13:54:52.918Z,2.10
2018-09-10T13:57:55.911Z,2.45
2018-09-10T14:00:58.891Z,1.70
2018-09-10T14:04:01.866Z,1.90
2018-09-10T14:07:04.881Z,1.95
2018-09-10T14:10:07.868Z,2.00
2018-09-10T14:13:10.865Z,1.90
2018-09-10T14:16:13.870Z,2.20
2018-09-10T14:19:16.846Z,2.00
2018-09-10T14:22:19.853Z,1.95
2018-09-10T14:25:22.850Z,1.98
2018-09-10T14:28:25.918Z,1.75
2018-09-10T14:31:28.990Z,1.90
2018-09-10T14:34:32.007Z,2.42
2018-09-10T14:37:35.013Z,3.08
2018-09-10T14:40:37.994Z,2.50
2018-09-10T14:43:40.990Z,2.50
2018-09-10T14:46:43.990Z,1.87
2018-09-10T14:49:46.970Z,2.00
2018-09-10T14:52:50.211Z,1.65
2018-09-10T14:55:53.197Z,2.42
2018-09-10T14:58:56.189Z,1.90
2018-09-10T15:01:59.210Z,1.98
2018-09-10T15:05:02.185Z,2.02
2018-09-10T15:08:05.190Z,2.17
2018-09-10T15:11:08.166Z,2.00
2018-09-10T15:14:11.167Z,1.98
2018-09-10T15:17:14.151Z,1.82
2018-09-10T15:20:17.234Z,2.33
2018-09-10T15:23:20.189Z,1.90
2018-09-10T15:26:23.179Z,2.33
2018-09-10T15:29:26.214Z,1.90
2018-09-10T15:32:29.206Z,2.00
2018-09-10T15:35:32.178Z,2.15
2018-09-10T15:38:35.195Z,1.85
2018-09-10T15:41:38.430Z,1.80
2018-09-10T15:44:41.449Z,2.10
2018-09-10T15:47:44.430Z,1.70
2018-09-10T15:50:47.475Z,1.80
2018-09-10T15:53:50.458Z,1.82
2018-09-10T15:56:53.533Z,1.75
2018-09-10T15:59:56.582Z,2.33
2018-09-10T16:02:59.567Z,2.02
2018-09-10T16:06:02.550Z,1.87
2018-09-10T16:09:07.405Z,1.90
2018-09-10T16:12:10.377Z,1.72
2018-09-10T16:15:13.386Z,2.05
2018-09-10T16:18:16.353Z,1.87
2018-09-10T16:21:19.405Z,2.00
2018-09-10T16:24:22.414Z,1.70
2018-09-10T16:27:25.397Z,1.70
2018-09-10T16:30:28.405Z,1.50
2018-09-10T16:33:31.394Z,1.95
2018-09-10T16:36:34.435Z,1.82
2018-09-10T16:39:37.431Z,2.00
2018-09-10T16:42:40.414Z,1.70
2018-09-10T16:45:43.419Z,1.77
2018-09-10T16:48:46.467Z,1.52
2018-09-10T16:51:49.419Z,1.98
2018-09-10T16:54:52.487Z,1.80
2018-09-10T16:57:55.438Z,1.85
2018-09-10T17:00:58.433Z,1.98
2018-09-10T17:04:01.454Z,1.60
2018-09-10T17:07:04.473Z,1.82
2018-09-10T17:10:07.530Z,1.70
2018-09-10T17:13:10.501Z,1.90
2018-09-10T17:16:13.542Z,1.80
2018-09-10T17:19:16.549Z,1.65
2018-09-10T17:22:19.591Z,1.40
2018-09-10T17:25:22.642Z,1.90
2018-09-10T17:28:25.645Z,1.90
2018-09-10T17:31:28.650Z,2.20
2018-09-10T17:34:31.638Z,1.50
2018-09-10T17:37:34.666Z,1.85
2018-09-10T17:40:37.677Z,2.05
2018-09-10T17:43:40.651Z,1.80
2018-09-10T17:46:43.662Z,1.77
2018-09-10T17:49:46.662Z,2.30
2018-09-10T17:52:49.649Z,1.52
2018-09-10T17:55:52.652Z,1.80
2018-09-10T17:58:55.623Z,2.12
2018-09-10T18:01:58.620Z,1.92
2018-09-10T18:05:01.603Z,1.87
2018-09-10T18:08:04.617Z,2.00
2018-09-10T18:11:07.780Z,2.20
2018-09-10T18:14:10.803Z,1.77
2018-09-10T18:17:13.841Z,2.05
2018-09-10T18:20:16.841Z,1.80
2018-09-10T18:23:19.839Z,1.80
2018-09-10T18:26:22.838Z,1.82
2018-09-10T18:29:25.812Z,2.12
2018-09-10T18:32:28.802Z,1.98
2018-09-10T18:35:31.816Z,2.00
2018-09-10T18:38:34.902Z,2.70
2018-09-10T18:41:37.898Z,2.42
2018-09-10T18:44:40.898Z,2.52
2018-09-10T18:47:44.116Z,1.82
2018-09-10T18:50:47.092Z,2.35
2018-09-10T18:53:50.095Z,2.27
2018-09-10T18:56:53.122Z,2.50
2018-09-10T18:59:56.094Z,2.40
2018-09-10T19:02:59.086Z,2.27
2018-09-10T19:06:02.099Z,2.00
2018-09-10T19:09:08.313Z,2.50
2018-09-10T19:12:11.318Z,2.00
2018-09-10T19:15:14.422Z,2.62
2018-09-10T19:18:17.905Z,2.42
2018-09-10T19:21:20.883Z,2.67
2018-09-10T19:24:23.898Z,2.80
2018-09-10T19:27:26.893Z,2.55
2018-09-10T19:30:29.994Z,2.55
2018-09-10T19:33:32.899Z,2.62
2018-09-10T19:36:35.921Z,2.52
2018-09-10T19:39:38.913Z,2.65
2018-09-10T19:42:41.909Z,2.37
2018-09-10T19:45:44.934Z,2.65
2018-09-10T19:48:48.099Z,2.50
2018-09-10T19:51:51.649Z,3.25
2018-09-10T19:54:54.653Z,3.02
2018-09-10T19:57:57.649Z,2.98
2018-09-10T20:01:00.638Z,2.80
2018-09-10T20:04:03.651Z,2.62
2018-09-10T20:07:06.666Z,2.42
2018-09-10T20:10:09.714Z,2.85
2018-09-10T20:13:12.745Z,2.55
2018-09-10T20:16:15.745Z,2.80
2018-09-10T20:19:18.768Z,2.75
2018-09-10T20:22:21.750Z,3.52
2018-09-10T20:25:24.758Z,2.90
2018-09-10T20:28:27.760Z,2.45
2018-09-10T20:31:30.753Z,2.52
2018-09-10T20:34:33.750Z,2.60
2018-09-10T20:37:36.750Z,2.98
2018-09-10T20:40:39.741Z,3.00
2018-09-10T20:43:42.750Z,2.50
2018-09-10T20:46:45.725Z,2.90
2018-09-10T20:49:48.730Z,3.02
2018-09-10T20:52:51.710Z,2.87
2018-09-10T20:55:54.710Z,3.65
2018-09-10T20:58:57.689Z,3.47
2018-09-10T21:02:00.721Z,2.77
2018-09-10T21:05:03.908Z,3.08
2018-09-10T21:08:06.914Z,2.50
2018-09-10T21:11:09.918Z,2.58
2018-09-10T21:14:12.925Z,2.90
2018-09-10T21:17:16.021Z,2.95
2018-09-10T21:20:19.034Z,2.47
2018-09-10T21:23:22.038Z,2.42
2018-09-10T21:26:25.034Z,2.67
2018-09-10T21:29:28.957Z,2.70
2018-09-10T21:32:31.920Z,2.67
2018-09-10T21:35:34.950Z,2.85
2018-09-10T21:38:37.945Z,2.35
2018-09-10T21:41:41.323Z,2.62
2018-09-10T21:44:44.538Z,2.83
2018-09-10T21:47:47.590Z,2.42
2018-09-10T21:50:50.670Z,2.77
2018-09-10T21:53:53.673Z,2.87
2018-09-10T21:56:56.745Z,3.05
2018-09-10T21:59:59.745Z,3.02
2018-09-10T22:03:02.759Z,3.10
2018-09-10T22:06:05.777Z,3.00
2018-09-10T22:09:09.003Z,3.15
2018-09-10T22:12:12.038Z,3.00
2018-09-10T22:15:15.079Z,2.95
2018-09-10T22:18:18.223Z,3.10
2018-09-10T22:21:21.217Z,3.10
2018-09-10T22:24:24.225Z,2.98
2018-09-10T22:27:27.266Z,3.25
2018-09-10T22:30:30.333Z,3.12
2018-09-10T22:33:33.345Z,2.87
2018-09-10T22:36:36.381Z,3.33
2018-09-10T22:39:39.597Z,3.20
2018-09-10T22:42:42.591Z,2.80
2018-09-10T22:45:45.642Z,2.75
2018-09-10T22:48:48.658Z,3.10
2018-09-10T22:51:51.774Z,3.20
2018-09-10T22:54:54.861Z,3.08
2018-09-10T22:57:57.858Z,3.75
2018-09-10T23:01:00.853Z,3.30
2018-09-10T23:04:03.854Z,4.05
2018-09-10T23:07:06.869Z,3.67
2018-09-10T23:10:09.894Z,3.65
2018-09-10T23:13:12.897Z,3.08
2018-09-10T23:16:15.873Z,3.40
2018-09-10T23:19:18.857Z,3.52
2018-09-10T23:22:21.852Z,3.17
2018-09-10T23:25:24.845Z,3.20
2018-09-10T23:28:27.910Z,3.15
2018-09-10T23:31:30.907Z,3.60
2018-09-10T23:34:33.954Z,3.58
2018-09-10T23:37:36.959Z,3.30
2018-09-10T23:40:39.937Z,3.15
2018-09-10T23:43:42.975Z,3.27
2018-09-10T23:46:45.969Z,3.47
2018-09-10T23:49:48.942Z,3.47
2018-09-10T23:52:51.940Z,3.70
2018-09-10T23:55:54.982Z,3.75
2018-09-10T23:58:57.978Z,3.67
